Georgetown, Florida
Current Conditions -  °F | °C
As of 4:15 AM on Friday 19 Dec 2014 (Local Time) from K28J Reporting Station
Broken Clouds Broken Clouds  
Wind Chill: 45°   Ceiling: 4400
Heat Index: 45°   Visibility: 10mi
Dew Point: 45°   Wind: 0mph
Humidity: 100%   Direction: NA
Pressure: 30.1"   Gusts: NA
Location:  29.39°N, 81.64°W
Report Text: K28J 190915Z AUTO 00000KT 10SM BKN044 07/07 A3010 RMK AO2
Loading
Personal Weather Stations






























Interactive Weather Map New forecast layout! Learn more

10-Day Weather Forecast

Advertisements
Track Severe Weather on mobile